TimeMDT,TemperatureF,Dew PointF,Humidity,Sea Level PressureIn,VisibilityMPH,Wind Direction,Wind SpeedMPH,Gust SpeedMPH,PrecipitationIn,Events,Conditions,WindDirDegrees,DateUTC
12:14 AM,42.8,35.6,76,30.07,10.0,West,13.8,-,N/A,,Overcast,260,2013-05-07 06:14:00
12:35 AM,42.8,35.6,76,30.08,10.0,West,9.2,-,N/A,,Light Drizzle,270,2013-05-07 06:35:00
12:55 AM,42.8,33.8,70,30.09,10.0,WSW,5.8,-,N/A,Rain,Light Rain,240,2013-05-07 06:55:00
1:15 AM,41.0,33.8,76,30.09,10.0,SW,3.5,-,N/A,,Overcast,230,2013-05-07 07:15:00
1:35 AM,41.0,33.8,76,30.09,10.0,South,6.9,-,N/A,,Overcast,190,2013-05-07 07:35:00
1:55 AM,41.0,32.0,70,30.09,10.0,Calm,Calm,-,N/A,,Overcast,0,2013-05-07 07:55:00
2:15 AM,41.0,32.0,70,30.08,10.0,Calm,Calm,-,N/A,,Overcast,0,2013-05-07 08:15:00
2:35 AM,41.0,32.0,70,30.08,10.0,SSW,8.1,17.3,N/A,,Light Drizzle,200,2013-05-07 08:35:00
2:55 AM,41.0,33.8,76,30.09,10.0,South,8.1,-,N/A,,Light Drizzle,170,2013-05-07 08:55:00
3:15 AM,41.0,32.0,70,30.09,10.0,SW,3.5,-,N/A,,Light Drizzle,220,2013-05-07 09:15:00
3:35 AM,41.0,33.8,76,30.09,10.0,West,4.6,-,N/A,,Drizzle,280,2013-05-07 09:35:00
3:54 AM,41.0,33.8,76,30.09,10.0,West,4.6,-,N/A,,Drizzle,270,2013-05-07 09:54:00
4:14 AM,41.0,33.8,76,30.09,10.0,Calm,Calm,-,N/A,,Drizzle,0,2013-05-07 10:14:00
4:35 AM,41.0,33.8,76,30.10,10.0,Calm,Calm,-,N/A,,Drizzle,0,2013-05-07 10:35:00
4:55 AM,41.0,35.6,81,30.10,10.0,Calm,Calm,-,N/A,,Drizzle,0,2013-05-07 10:55:00
5:15 AM,41.0,33.8,76,30.10,10.0,Calm,Calm,-,N/A,Rain,Rain,0,2013-05-07 11:15:00
5:35 AM,41.0,35.6,81,30.10,10.0,Calm,Calm,-,N/A,Rain,Rain,0,2013-05-07 11:35:00
5:55 AM,41.0,35.6,81,30.11,10.0,Calm,Calm,-,N/A,,Drizzle,0,2013-05-07 11:55:00
6:15 AM,39.2,35.6,87,30.11,10.0,Calm,Calm,-,0.01,,Drizzle,0,2013-05-07 12:15:00
6:35 AM,39.2,35.6,87,30.12,10.0,Calm,Calm,-,0.01,,Overcast,0,2013-05-07 12:35:00
6:55 AM,41.0,35.6,81,30.12,10.0,Calm,Calm,-,0.01,,Overcast,0,2013-05-07 12:55:00
7:15 AM,41.0,35.6,81,30.12,10.0,ESE,3.5,-,N/A,,Overcast,110,2013-05-07 13:15:00
7:35 AM,41.0,35.6,81,30.12,10.0,ESE,4.6,-,N/A,,Mostly Cloudy,110,2013-05-07 13:35:00
7:55 AM,41.0,35.6,81,30.12,10.0,ESE,3.5,-,N/A,,Mostly Cloudy,110,2013-05-07 13:55:00
8:15 AM,42.8,35.6,76,30.12,10.0,ESE,4.6,-,N/A,,Overcast,110,2013-05-07 14:15:00
8:35 AM,42.8,35.6,76,30.12,10.0,East,4.6,-,N/A,,Overcast,90,2013-05-07 14:35:00
8:54 AM,46.4,37.4,71,30.12,10.0,SE,4.6,-,N/A,,Overcast,130,2013-05-07 14:54:00
9:15 AM,46.4,35.6,66,30.12,10.0,SE,3.5,-,N/A,,Overcast,130,2013-05-07 15:15:00
9:35 AM,46.4,35.6,66,30.12,10.0,Calm,Calm,-,N/A,,Overcast,0,2013-05-07 15:35:00
9:55 AM,46.4,35.6,66,30.12,10.0,Calm,Calm,-,N/A,,Overcast,0,2013-05-07 15:55:00
10:15 AM,50.0,35.6,58,30.11,10.0,West,4.6,-,N/A,,Scattered Clouds,280,2013-05-07 16:15:00
10:35 AM,50.0,35.6,58,30.11,10.0,WSW,6.9,-,N/A,,Scattered Clouds,250,2013-05-07 16:35:00
10:55 AM,51.8,33.8,50,30.10,10.0,SSE,5.8,-,N/A,,Scattered Clouds,160,2013-05-07 16:55:00
11:15 AM,55.4,32.0,41,30.09,10.0,WNW,5.8,-,N/A,Thunderstorm,Clear,290,2013-05-07 17:15:00
11:35 AM,53.6,30.2,41,30.09,10.0,West,6.9,-,N/A,,Clear,280,2013-05-07 17:35:00
11:54 AM,53.6,32.0,44,30.08,10.0,WNW,3.5,-,N/A,,Mostly Cloudy,290,2013-05-07 17:54:00
12:15 PM,53.6,32.0,44,30.07,10.0,SSW,13.8,17.3,N/A,,Scattered Clouds,210,2013-05-07 18:15:00
12:35 PM,55.4,32.0,41,30.06,10.0,WSW,12.7,-,N/A,,Mostly Cloudy,240,2013-05-07 18:35:00
12:55 PM,55.4,32.0,41,30.06,10.0,WSW,10.4,17.3,N/A,,Overcast,240,2013-05-07 18:55:00
1:15 PM,55.4,26.6,33,30.06,10.0,WSW,13.8,17.3,N/A,,Mostly Cloudy,250,2013-05-07 19:15:00
1:35 PM,57.2,26.6,31,30.06,10.0,West,5.8,-,N/A,,Scattered Clouds,280,2013-05-07 19:35:00
1:55 PM,57.2,26.6,31,30.04,10.0,WSW,12.7,24.2,N/A,,Scattered Clouds,240,2013-05-07 19:55:00
2:15 PM,55.4,32.0,41,30.04,10.0,NE,10.4,-,N/A,Thunderstorm,Mostly Cloudy,50,2013-05-07 20:15:00
2:35 PM,59.0,32.0,36,30.04,10.0,ENE,8.1,-,N/A,,Mostly Cloudy,60,2013-05-07 20:35:00
2:55 PM,55.4,30.2,38,30.04,10.0,SSW,4.6,-,N/A,,Scattered Clouds,200,2013-05-07 20:55:00
3:15 PM,57.2,28.4,33,30.04,10.0,WSW,16.1,21.9,N/A,,Scattered Clouds,240,2013-05-07 21:15:00
3:35 PM,55.4,28.4,36,30.04,10.0,SW,13.8,21.9,N/A,,Scattered Clouds,230,2013-05-07 21:35:00
3:55 PM,55.4,26.6,33,30.04,10.0,WSW,15.0,24.2,N/A,Thunderstorm,Clear,240,2013-05-07 21:55:00
4:14 PM,55.4,24.8,31,30.04,10.0,SW,10.4,16.1,N/A,,Mostly Cloudy,230,2013-05-07 22:14:00
4:35 PM,55.4,26.6,33,30.04,10.0,West,15.0,-,N/A,Thunderstorm,Overcast,260,2013-05-07 22:35:00
4:55 PM,55.4,30.2,38,30.05,10.0,NNW,11.5,-,N/A,,Overcast,330,2013-05-07 22:55:00
5:15 PM,51.8,32.0,47,30.06,10.0,North,12.7,20.7,N/A,,Mostly Cloudy,350,2013-05-07 23:15:00
5:55 PM,51.8,32.0,47,30.06,10.0,NNW,15.0,21.9,N/A,,Scattered Clouds,340,2013-05-07 23:55:00
6:15 PM,51.8,32.0,47,30.06,10.0,NNW,12.7,-,N/A,,Clear,340,2013-05-08 00:15:00
6:35 PM,50.0,30.2,47,30.06,10.0,NNW,9.2,-,N/A,,Clear,340,2013-05-08 00:35:00
6:55 PM,50.0,32.0,50,30.06,10.0,NNW,9.2,-,N/A,,Clear,330,2013-05-08 00:55:00
7:15 PM,50.0,30.2,47,30.06,10.0,Calm,Calm,-,N/A,,Clear,0,2013-05-08 01:15:00
7:35 PM,50.0,30.2,47,30.06,10.0,WSW,5.8,-,N/A,,Mostly Cloudy,250,2013-05-08 01:35:00
7:55 PM,50.0,32.0,50,30.07,10.0,SSW,6.9,-,N/A,Thunderstorm,Mostly Cloudy,200,2013-05-08 01:55:00
8:15 PM,50.0,32.0,50,30.09,10.0,SSW,4.6,-,N/A,,Scattered Clouds,200,2013-05-08 02:15:00
8:35 PM,46.4,32.0,57,30.08,10.0,WSW,10.4,21.9,N/A,,Overcast,240,2013-05-08 02:35:00
8:55 PM,44.6,32.0,61,30.10,10.0,South,8.1,18.4,N/A,,Overcast,180,2013-05-08 02:55:00
9:15 PM,42.8,32.0,66,30.10,10.0,South,5.8,-,N/A,,Mostly Cloudy,170,2013-05-08 03:15:00
9:35 PM,44.6,32.0,61,30.11,10.0,WSW,6.9,-,N/A,,Overcast,240,2013-05-08 03:35:00
9:55 PM,44.6,32.0,61,30.12,10.0,SSW,8.1,-,N/A,,Overcast,200,2013-05-08 03:55:00
10:15 PM,44.6,32.0,61,30.12,10.0,Calm,Calm,-,N/A,,Overcast,0,2013-05-08 04:15:00
10:35 PM,42.8,32.0,66,30.12,10.0,SW,4.6,-,N/A,,Overcast,220,2013-05-08 04:35:00
10:54 PM,42.8,32.0,66,30.13,10.0,SW,3.5,-,N/A,,Overcast,220,2013-05-08 04:54:00
11:14 PM,42.8,32.0,66,30.12,10.0,West,5.8,-,N/A,,Overcast,270,2013-05-08 05:14:00
11:35 PM,42.8,32.0,66,30.12,10.0,Calm,Calm,-,N/A,,Overcast,0,2013-05-08 05:35:00
11:54 PM,42.8,32.0,66,30.12,10.0,West,5.8,-,N/A,,Overcast,280,2013-05-08 05:54:00